• Join FlightAware (Why Join?)
  • Login
  • US Flag 
10:28PM EDT


 

Airport Tracker/Info


-or-


 

Live Flight TrackerFlight Track Log ✈ SWA525 ✈ 03-May-2013 ✈ KMSY - KMCO

Flight Track Log - Related Links

Times and Time Zones

All times are in EDT time to prevent confusion due to time zone crossing. See the SWA525 flight status page for this flight to view local times or setup timezone preferences in your user account.

Time Position Orientation Groundspeed Altitude Reporting Facility
EDT Latitude Longitude Course Direction KTS MPH feet Rate Location/Type
06:17PM 29.9992 -90.2983 289° West 179 206 1,500  Level Houston Center
06:17PM 29.9828 -90.3353 243° Southwest 223 257 3,200 2,580 Climbing Houston Center
06:18PM 29.9636 -90.3367 184° South 250 288 4,200 3,360 Climbing Houston Center
06:19PM 29.9058 -90.2794 139° Southeast 269 310 8,100 3,300 Climbing Houston Center
06:20PM 29.8456 -90.2169 138° Southeast 280 322 11,100 3,480 Climbing Houston Center
06:21PM 29.7569 -90.1239 138° Southeast 326 375 15,300 3,600 Climbing Houston Center
06:22PM 29.6931 -90.0258 127° Southeast 363 418 18,600 2,940 Climbing Houston Center
06:23PM 29.6281 -89.9164 124° Southeast 399 459 21,400 2,580 Climbing Houston Center
06:24PM 29.5600 -89.8053 125° Southeast 423 487 24,000 2,400 Climbing Houston Center
06:25PM 29.4892 -89.6878 125° Southeast 443 510 26,400 2,520 Climbing Houston Center
06:26PM 29.4011 -89.5419 125° Southeast 463 533 29,300 2,220 Climbing Houston Center
06:27PM 29.3500 -89.4036 113° Southeast 473 544 31,100 1,500 Climbing Houston Center
06:28PM 29.3108 -89.2547 107° East 488 562 32,500 900 Climbing Houston Center
06:29PM 29.2714 -89.0983 106° East 506 582 33,000 240 Climbing Houston Center
06:30PM 29.2308 -88.9450 107° East 506 582 33,000 300 Level Houston Center
06:31PM 29.1819 -88.7606 107° East 507 583 33,700 1,200 Climbing Houston Center
06:32PM 29.1419 -88.6067 107° East 508 585 35,500 1,680 Climbing Houston Center
06:33PM 29.1014 -88.4542 107° East 504 580 37,200 1,440 Climbing Houston Center
06:34PM 29.0597 -88.3019 107° East 503 579 38,600 1,320 Climbing Houston Center
06:35PM 29.0181 -88.1514 108° East 498 573 40,000 960 Climbing Houston Center
06:36PM 28.9733 -87.9856 107° East 497 572 40,700 480 Climbing Houston Center
06:37PM 28.9325 -87.8325 107° East 505 581 41,000 120 Climbing Houston Center
06:38PM 28.8900 -87.6803 108° East 506 582 41,000  Level Houston Center
06:39PM 28.8378 -87.4981 108° East 506 582 41,000  Level Houston Center
06:40PM 28.7969 -87.3481 107° East 501 577 41,000  Level Houston Center
06:41PM 28.7778 -87.2908 111° Southeast 489 563 41,000  Level Jacksonville Center
06:42PM 28.7408 -87.1472 106° East 489 563 41,000 -60 Level Jacksonville Center
06:43PM 28.6978 -86.9986 108° East 489 563 40,900  Descending Jacksonville Center
06:44PM 28.6544 -86.8478 108° East 489 563 41,000  Climbing Jacksonville Center
06:45PM 28.6111 -86.6972 108° East 489 563 41,000  Level Jacksonville Center
06:46PM 28.5694 -86.5514 108° East 489 563 41,000  Level Jacksonville Center
06:47PM 28.5256 -86.4033 109° East 495 570 41,000  Level Jacksonville Center
06:48PM 28.4817 -86.2461 108° East 500 575 41,000  Level Jacksonville Center
06:49PM 28.4356 -86.0933 109° East 500 575 41,000  Level Jacksonville Center
06:50PM 28.3931 -85.9506 109° East 500 575 41,000  Level Jacksonville Center
06:51PM 28.3508 -85.8006 108° East 495 570 41,000  Level Jacksonville Center
06:52PM 28.3061 -85.6533 109° East 495 570 41,000  Level Jacksonville Center
06:53PM 28.2367 -85.4208 109° East 490 564 41,000  Level Miami Center
06:54PM 28.1936 -85.2717 108° East 490 564 41,000  Level Miami Center
06:55PM 28.1461 -85.1200 110° East 502 578 41,000  Level Miami Center
06:56PM 28.1006 -84.9711 109° East 502 578 41,000  Level Miami Center
06:57PM 28.0589 -84.8225 108° East 496 571 41,000  Level Miami Center
06:58PM 28.0108 -84.6689 109° East 508 585 41,000  Level Miami Center
06:59PM 27.9575 -84.5031 110° East 503 579 41,000  Level Miami Center
07:00PM 27.9172 -84.3525 107° East 503 579 41,000  Level Miami Center
07:01PM 27.9111 -84.1925 92° East 498 573 41,000 -480 Level Miami Center
07:02PM 27.9044 -84.0350 93° East 503 579 40,100 -1,560 Descending Miami Center
07:03PM 27.8956 -83.8772 94° East 503 579 37,900 -2,700 Descending Miami Center
07:04PM 27.8883 -83.7242 93° East 498 573 34,800 -3,180 Descending Miami Center
07:05PM 27.8808 -83.5711 93° East 498 573 31,600 -2,880 Descending Miami Center
07:06PM 27.8756 -83.4161 92° East 493 567 29,100 -2,520 Descending Miami Center
07:07PM 27.8656 -83.2678 94° East 483 556 26,600 -2,400 Descending Miami Center
07:08PM 27.8592 -83.1311 93° East 469 540 24,300 -1,620 Descending Miami Center
07:09PM 27.8503 -82.9969 94° East 445 512 23,400 -960 Descending Miami Center
07:10PM 27.8414 -82.8603 94° East 434 499 22,400 -1,020 Descending Miami Center
07:11PM 27.8406 -82.7336 90° East 423 487 21,400 -1,020 Descending Miami Center
07:12PM 27.8228 -82.6014 99° East 418 481 20,400 -960 Descending Miami Center
07:13PM 27.8422 -82.4781 80° East 405 466 19,500 -1,020 Descending Miami Center
07:14PM 27.8758 -82.3644 71° East 391 450 18,400 -1,080 Descending Miami Center
07:16PM 27.9333 -82.1833 70° East 389 448 16,800 -1,080 Descending Orlando TRACON
07:17PM 27.9667 -82.0833 69° East 378 435 15,800 -1,620 Descending Orlando TRACON
07:18PM 28.0000 -81.9667 72° East 363 418 13,800 -1,380 Descending Orlando TRACON
07:19PM 28.0500 -81.8667 60° Northeast 335 386 13,000 -960 Descending Orlando TRACON
07:20PM 28.1000 -81.7833 56° Northeast 316 364 11,900 -1,260 Descending Orlando TRACON
07:21PM 28.1333 -81.7000 66° East 307 353 10,500 -1,440 Descending Orlando TRACON
07:22PM 28.1667 -81.6000 69° East 292 336 8,900 -1,620 Descending Orlando TRACON
07:23PM 28.1833 -81.5167 77° East 284 327 7,200 -1,020 Descending Orlando TRACON
07:24PM 28.1833 -81.4333 90° East 265 305 7,000 -840 Descending Orlando TRACON
07:25PM 28.2000 -81.3500 77° East 222 255 5,500 -1,380 Descending Orlando TRACON
07:26PM 28.2500 -81.3167 30° Northeast 185 213 4,000 -1,680 Descending Orlando TRACON
07:27PM 28.3000 -81.3167 360° North 166 191 2,200 -1,200 Descending Orlando TRACON
07:28PM 28.3333 -81.3167 360° North 152 175 1,600 -660 Descending Orlando TRACON
07:29PM 28.3667 -81.3167 360° North 128 147 1,000 -720 Descending Orlando TRACON
07:30PM 28.4167 -81.3167 360° North 133 153 200 -780 Descending Orlando TRACON